sensor_id;sensor_type;location;lat;lon;timestamp;P1;durP1;ratioP1;P2;durP2;ratioP2
59418;SDS011;45224;50.904;6.038;2022-10-16T00:00:29;4.47;;;1.75;;
59418;SDS011;45224;50.904;6.038;2022-10-16T00:01:59;3.40;;;1.73;;
59418;SDS011;45224;50.904;6.038;2022-10-16T00:03:30;4.10;;;1.70;;
59418;SDS011;45224;50.904;6.038;2022-10-16T00:05:00;5.13;;;1.60;;
59418;SDS011;45224;50.904;6.038;2022-10-16T00:06:31;3.60;;;1.73;;
59418;SDS011;45224;50.904;6.038;2022-10-16T00:08:02;3.40;;;1.55;;
59418;SDS011;45224;50.904;6.038;2022-10-16T00:09:32;4.70;;;1.60;;
59418;SDS011;45224;50.904;6.038;2022-10-16T00:11:13;4.40;;;1.80;;
59418;SDS011;45224;50.904;6.038;2022-10-16T00:12:45;4.95;;;1.70;;
59418;SDS011;45224;50.904;6.038;2022-10-16T00:14:16;4.33;;;1.80;;
59418;SDS011;45224;50.904;6.038;2022-10-16T00:15:46;3.00;;;1.57;;
59418;SDS011;45224;50.904;6.038;2022-10-16T00:17:16;4.27;;;1.50;;
59418;SDS011;45224;50.904;6.038;2022-10-16T00:18:47;3.17;;;1.80;;
59418;SDS011;45224;50.904;6.038;2022-10-16T00:20:17;4.87;;;1.67;;
59418;SDS011;45224;50.904;6.038;2022-10-16T00:21:48;3.37;;;1.90;;
59418;SDS011;45224;50.904;6.038;2022-10-16T00:23:18;2.27;;;1.60;;
59418;SDS011;45224;50.904;6.038;2022-10-16T00:24:50;5.90;;;1.95;;
59418;SDS011;45224;50.904;6.038;2022-10-16T00:26:20;5.13;;;1.90;;
59418;SDS011;45224;50.904;6.038;2022-10-16T00:27:51;3.95;;;1.90;;
59418;SDS011;45224;50.904;6.038;2022-10-16T00:29:21;4.53;;;2.10;;
59418;SDS011;45224;50.904;6.038;2022-10-16T00:30:52;4.87;;;1.70;;
59418;SDS011;45224;50.904;6.038;2022-10-16T00:32:23;4.03;;;2.03;;
59418;SDS011;45224;50.904;6.038;2022-10-16T00:33:54;4.70;;;1.90;;
59418;SDS011;45224;50.904;6.038;2022-10-16T00:35:24;8.47;;;2.30;;
59418;SDS011;45224;50.904;6.038;2022-10-16T00:36:54;2.93;;;2.10;;
59418;SDS011;45224;50.904;6.038;2022-10-16T00:38:25;6.63;;;2.17;;
59418;SDS011;45224;50.904;6.038;2022-10-16T00:39:55;3.13;;;1.93;;
59418;SDS011;45224;50.904;6.038;2022-10-16T00:41:26;7.33;;;2.10;;
59418;SDS011;45224;50.904;6.038;2022-10-16T00:42:58;3.90;;;2.38;;
59418;SDS011;45224;50.904;6.038;2022-10-16T00:44:45;4.67;;;2.27;;
59418;SDS011;45224;50.904;6.038;2022-10-16T00:47:54;8.20;;;2.60;;
59418;SDS011;45224;50.904;6.038;2022-10-16T00:49:26;3.88;;;2.08;;
59418;SDS011;45224;50.904;6.038;2022-10-16T00:50:56;13.43;;;2.30;;
59418;SDS011;45224;50.904;6.038;2022-10-16T00:52:28;3.25;;;2.30;;
59418;SDS011;45224;50.904;6.038;2022-10-16T00:53:58;2.47;;;2.00;;
59418;SDS011;45224;50.904;6.038;2022-10-16T00:55:31;3.47;;;2.20;;
59418;SDS011;45224;50.904;6.038;2022-10-16T00:57:03;2.93;;;1.87;;
59418;SDS011;45224;50.904;6.038;2022-10-16T00:58:35;2.03;;;1.67;;
59418;SDS011;45224;50.904;6.038;2022-10-16T01:00:07;4.20;;;2.37;;
59418;SDS011;45224;50.904;6.038;2022-10-16T01:01:39;4.28;;;2.00;;
59418;SDS011;45224;50.904;6.038;2022-10-16T01:03:22;3.00;;;2.10;;
59418;SDS011;45224;50.904;6.038;2022-10-16T01:04:53;4.65;;;2.28;;
59418;SDS011;45224;50.904;6.038;2022-10-16T01:06:28;6.05;;;2.40;;
59418;SDS011;45224;50.904;6.038;2022-10-16T01:11:49;3.22;;;1.83;;
59418;SDS011;45224;50.904;6.038;2022-10-16T01:13:38;3.40;;;2.20;;
59418;SDS011;45224;50.904;6.038;2022-10-16T01:17:01;6.10;;;2.30;;
59418;SDS011;45224;50.904;6.038;2022-10-16T01:18:40;2.95;;;2.08;;
59418;SDS011;45224;50.904;6.038;2022-10-16T01:20:23;3.45;;;2.20;;
59418;SDS011;45224;50.904;6.038;2022-10-16T01:21:59;3.35;;;2.47;;
59418;SDS011;45224;50.904;6.038;2022-10-16T01:27:38;7.07;;;2.30;;
59418;SDS011;45224;50.904;6.038;2022-10-16T01:29:16;3.17;;;2.00;;
59418;SDS011;45224;50.904;6.038;2022-10-16T01:30:59;5.00;;;1.98;;
59418;SDS011;45224;50.904;6.038;2022-10-16T01:32:40;8.98;;;2.17;;
59418;SDS011;45224;50.904;6.038;2022-10-16T01:34:14;3.97;;;2.10;;
59418;SDS011;45224;50.904;6.038;2022-10-16T01:35:50;2.70;;;1.88;;
59418;SDS011;45224;50.904;6.038;2022-10-16T01:37:35;2.97;;;1.92;;
59418;SDS011;45224;50.904;6.038;2022-10-16T01:39:10;3.03;;;1.80;;
59418;SDS011;45224;50.904;6.038;2022-10-16T01:40:44;4.18;;;1.98;;
59418;SDS011;45224;50.904;6.038;2022-10-16T01:42:23;3.38;;;1.70;;
59418;SDS011;45224;50.904;6.038;2022-10-16T01:44:02;8.68;;;1.75;;
59418;SDS011;45224;50.904;6.038;2022-10-16T01:45:33;5.38;;;1.52;;
59418;SDS011;45224;50.904;6.038;2022-10-16T01:47:07;2.97;;;1.77;;
59418;SDS011;45224;50.904;6.038;2022-10-16T01:48:40;3.08;;;1.73;;
59418;SDS011;45224;50.904;6.038;2022-10-16T01:50:11;4.35;;;1.70;;
59418;SDS011;45224;50.904;6.038;2022-10-16T01:51:45;3.58;;;1.83;;
59418;SDS011;45224;50.904;6.038;2022-10-16T01:53:19;2.38;;;1.80;;
59418;SDS011;45224;50.904;6.038;2022-10-16T01:54:50;8.05;;;1.73;;
59418;SDS011;45224;50.904;6.038;2022-10-16T01:56:24;4.30;;;1.40;;
59418;SDS011;45224;50.904;6.038;2022-10-16T01:57:56;3.13;;;1.67;;
59418;SDS011;45224;50.904;6.038;2022-10-16T01:59:30;3.20;;;1.75;;
59418;SDS011;45224;50.904;6.038;2022-10-16T02:01:03;2.85;;;1.50;;
59418;SDS011;45224;50.904;6.038;2022-10-16T02:02:36;2.90;;;1.42;;
59418;SDS011;45224;50.904;6.038;2022-10-16T02:04:19;2.80;;;1.67;;
59418;SDS011;45224;50.904;6.038;2022-10-16T02:05:56;2.42;;;1.50;;
59418;SDS011;45224;50.904;6.038;2022-10-16T02:07:28;2.90;;;1.23;;
59418;SDS011;45224;50.904;6.038;2022-10-16T02:08:58;2.87;;;1.77;;
59418;SDS011;45224;50.904;6.038;2022-10-16T02:10:29;2.20;;;1.60;;
59418;SDS011;45224;50.904;6.038;2022-10-16T02:12:03;5.30;;;1.60;;
59418;SDS011;45224;50.904;6.038;2022-10-16T02:13:48;2.15;;;1.60;;
59418;SDS011;45224;50.904;6.038;2022-10-16T02:15:23;1.98;;;1.45;;
59418;SDS011;45224;50.904;6.038;2022-10-16T02:16:53;2.60;;;1.67;;
59418;SDS011;45224;50.904;6.038;2022-10-16T02:18:24;8.07;;;2.13;;
59418;SDS011;45224;50.904;6.038;2022-10-16T02:19:59;3.70;;;1.73;;
59418;SDS011;45224;50.904;6.038;2022-10-16T02:21:37;3.88;;;1.70;;
59418;SDS011;45224;50.904;6.038;2022-10-16T02:23:18;2.30;;;1.67;;
59418;SDS011;45224;50.904;6.038;2022-10-16T02:25:29;2.92;;;1.67;;
59418;SDS011;45224;50.904;6.038;2022-10-16T02:28:41;3.03;;;1.67;;
59418;SDS011;45224;50.904;6.038;2022-10-16T02:30:28;4.70;;;1.67;;
59418;SDS011;45224;50.904;6.038;2022-10-16T02:32:04;2.47;;;1.63;;
59418;SDS011;45224;50.904;6.038;2022-10-16T02:33:39;2.03;;;1.52;;
59418;SDS011;45224;50.904;6.038;2022-10-16T02:35:12;4.22;;;1.80;;
59418;SDS011;45224;50.904;6.038;2022-10-16T02:36:45;3.78;;;1.85;;
59418;SDS011;45224;50.904;6.038;2022-10-16T02:38:18;2.25;;;1.63;;
59418;SDS011;45224;50.904;6.038;2022-10-16T02:39:51;3.75;;;2.17;;
59418;SDS011;45224;50.904;6.038;2022-10-16T02:41:23;4.50;;;2.10;;
59418;SDS011;45224;50.904;6.038;2022-10-16T02:42:54;5.15;;;1.60;;
59418;SDS011;45224;50.904;6.038;2022-10-16T02:44:25;4.70;;;1.73;;
59418;SDS011;45224;50.904;6.038;2022-10-16T02:45:55;3.90;;;1.67;;
59418;SDS011;45224;50.904;6.038;2022-10-16T02:47:26;3.13;;;1.50;;
59418;SDS011;45224;50.904;6.038;2022-10-16T02:48:56;2.73;;;1.70;;
59418;SDS011;45224;50.904;6.038;2022-10-16T02:50:27;4.93;;;1.80;;
59418;SDS011;45224;50.904;6.038;2022-10-16T02:51:57;4.27;;;1.90;;
59418;SDS011;45224;50.904;6.038;2022-10-16T02:53:28;2.70;;;1.53;;
59418;SDS011;45224;50.904;6.038;2022-10-16T02:54:58;8.50;;;1.90;;
59418;SDS011;45224;50.904;6.038;2022-10-16T02:56:28;2.97;;;1.40;;
59418;SDS011;45224;50.904;6.038;2022-10-16T02:58:00;3.70;;;1.80;;
59418;SDS011;45224;50.904;6.038;2022-10-16T02:59:30;2.40;;;1.93;;
59418;SDS011;45224;50.904;6.038;2022-10-16T03:01:00;3.53;;;1.90;;
59418;SDS011;45224;50.904;6.038;2022-10-16T03:02:31;4.20;;;1.52;;
59418;SDS011;45224;50.904;6.038;2022-10-16T03:04:02;2.00;;;1.80;;
59418;SDS011;45224;50.904;6.038;2022-10-16T03:05:32;2.45;;;1.67;;
59418;SDS011;45224;50.904;6.038;2022-10-16T03:07:03;3.00;;;1.80;;
59418;SDS011;45224;50.904;6.038;2022-10-16T03:08:34;2.88;;;1.60;;
59418;SDS011;45224;50.904;6.038;2022-10-16T03:10:04;7.77;;;1.70;;
59418;SDS011;45224;50.904;6.038;2022-10-16T03:11:35;3.28;;;1.75;;
59418;SDS011;45224;50.904;6.038;2022-10-16T03:13:05;5.07;;;1.87;;
59418;SDS011;45224;50.904;6.038;2022-10-16T03:14:36;3.83;;;2.03;;
59418;SDS011;45224;50.904;6.038;2022-10-16T03:16:06;8.63;;;2.17;;
59418;SDS011;45224;50.904;6.038;2022-10-16T03:17:37;3.70;;;2.00;;
59418;SDS011;45224;50.904;6.038;2022-10-16T03:19:07;3.17;;;2.00;;
59418;SDS011;45224;50.904;6.038;2022-10-16T03:20:38;6.27;;;1.80;;
59418;SDS011;45224;50.904;6.038;2022-10-16T03:22:08;2.03;;;1.83;;
59418;SDS011;45224;50.904;6.038;2022-10-16T03:23:39;5.13;;;1.97;;
59418;SDS011;45224;50.904;6.038;2022-10-16T03:25:09;6.83;;;2.27;;
59418;SDS011;45224;50.904;6.038;2022-10-16T03:26:40;3.93;;;1.67;;
59418;SDS011;45224;50.904;6.038;2022-10-16T03:28:10;4.07;;;2.00;;
59418;SDS011;45224;50.904;6.038;2022-10-16T03:29:41;4.32;;;2.50;;
59418;SDS011;45224;50.904;6.038;2022-10-16T03:31:12;3.23;;;1.90;;
59418;SDS011;45224;50.904;6.038;2022-10-16T03:32:43;2.73;;;1.97;;
59418;SDS011;45224;50.904;6.038;2022-10-16T03:34:14;3.38;;;1.73;;
59418;SDS011;45224;50.904;6.038;2022-10-16T03:35:50;7.82;;;2.22;;
59418;SDS011;45224;50.904;6.038;2022-10-16T03:37:23;3.38;;;2.08;;
59418;SDS011;45224;50.904;6.038;2022-10-16T03:38:53;5.03;;;2.00;;
59418;SDS011;45224;50.904;6.038;2022-10-16T03:40:24;5.83;;;2.17;;
59418;SDS011;45224;50.904;6.038;2022-10-16T03:41:54;3.10;;;2.20;;
59418;SDS011;45224;50.904;6.038;2022-10-16T03:43:25;4.73;;;2.00;;
59418;SDS011;45224;50.904;6.038;2022-10-16T03:44:55;5.47;;;2.17;;
59418;SDS011;45224;50.904;6.038;2022-10-16T03:46:26;4.47;;;2.33;;
59418;SDS011;45224;50.904;6.038;2022-10-16T03:47:56;3.50;;;2.30;;
59418;SDS011;45224;50.904;6.038;2022-10-16T03:49:26;4.40;;;2.13;;
59418;SDS011;45224;50.904;6.038;2022-10-16T03:50:57;4.37;;;2.43;;
59418;SDS011;45224;50.904;6.038;2022-10-16T03:52:28;2.90;;;2.30;;
59418;SDS011;45224;50.904;6.038;2022-10-16T03:53:58;2.47;;;2.07;;
59418;SDS011;45224;50.904;6.038;2022-10-16T03:55:29;8.20;;;2.80;;
59418;SDS011;45224;50.904;6.038;2022-10-16T03:57:00;7.07;;;2.53;;
59418;SDS011;45224;50.904;6.038;2022-10-16T03:58:30;5.87;;;2.40;;
59418;SDS011;45224;50.904;6.038;2022-10-16T04:00:01;3.07;;;2.23;;
59418;SDS011;45224;50.904;6.038;2022-10-16T04:01:31;5.87;;;2.43;;
59418;SDS011;45224;50.904;6.038;2022-10-16T04:03:02;5.30;;;2.40;;
59418;SDS011;45224;50.904;6.038;2022-10-16T04:04:32;5.00;;;2.50;;
59418;SDS011;45224;50.904;6.038;2022-10-16T04:06:02;3.83;;;2.40;;
59418;SDS011;45224;50.904;6.038;2022-10-16T04:07:33;5.03;;;2.73;;
59418;SDS011;45224;50.904;6.038;2022-10-16T04:09:03;4.70;;;2.50;;
59418;SDS011;45224;50.904;6.038;2022-10-16T04:10:34;4.88;;;2.95;;
59418;SDS011;45224;50.904;6.038;2022-10-16T04:12:04;5.23;;;2.50;;
59418;SDS011;45224;50.904;6.038;2022-10-16T04:13:35;4.13;;;2.30;;
59418;SDS011;45224;50.904;6.038;2022-10-16T04:15:05;3.70;;;2.43;;
59418;SDS011;45224;50.904;6.038;2022-10-16T04:16:36;4.63;;;2.60;;
59418;SDS011;45224;50.904;6.038;2022-10-16T04:18:07;5.93;;;2.70;;
59418;SDS011;45224;50.904;6.038;2022-10-16T04:19:37;3.00;;;2.50;;
59418;SDS011;45224;50.904;6.038;2022-10-16T04:21:08;3.37;;;2.23;;
59418;SDS011;45224;50.904;6.038;2022-10-16T04:22:38;2.93;;;2.33;;
59418;SDS011;45224;50.904;6.038;2022-10-16T04:24:09;6.63;;;2.60;;
59418;SDS011;45224;50.904;6.038;2022-10-16T04:25:40;7.13;;;2.67;;
59418;SDS011;45224;50.904;6.038;2022-10-16T04:27:11;2.77;;;2.13;;
59418;SDS011;45224;50.904;6.038;2022-10-16T04:28:41;5.17;;;2.60;;
59418;SDS011;45224;50.904;6.038;2022-10-16T04:30:12;3.27;;;2.30;;
59418;SDS011;45224;50.904;6.038;2022-10-16T04:31:43;5.65;;;2.60;;
59418;SDS011;45224;50.904;6.038;2022-10-16T04:33:13;6.20;;;2.60;;
59418;SDS011;45224;50.904;6.038;2022-10-16T04:34:43;3.13;;;2.23;;
59418;SDS011;45224;50.904;6.038;2022-10-16T04:36:14;4.73;;;2.63;;
59418;SDS011;45224;50.904;6.038;2022-10-16T04:37:44;5.67;;;2.57;;
59418;SDS011;45224;50.904;6.038;2022-10-16T04:39:15;4.82;;;2.63;;
59418;SDS011;45224;50.904;6.038;2022-10-16T04:40:46;6.32;;;2.67;;
59418;SDS011;45224;50.904;6.038;2022-10-16T04:42:16;6.03;;;2.50;;
59418;SDS011;45224;50.904;6.038;2022-10-16T04:43:47;4.33;;;2.70;;
59418;SDS011;45224;50.904;6.038;2022-10-16T04:45:17;3.87;;;2.60;;
59418;SDS011;45224;50.904;6.038;2022-10-16T04:46:50;4.57;;;2.40;;
59418;SDS011;45224;50.904;6.038;2022-10-16T04:48:21;3.95;;;2.78;;
59418;SDS011;45224;50.904;6.038;2022-10-16T04:49:51;3.10;;;2.50;;
59418;SDS011;45224;50.904;6.038;2022-10-16T04:51:22;3.70;;;2.37;;
59418;SDS011;45224;50.904;6.038;2022-10-16T04:52:53;3.15;;;2.30;;
59418;SDS011;45224;50.904;6.038;2022-10-16T04:54:23;5.03;;;2.40;;
59418;SDS011;45224;50.904;6.038;2022-10-16T04:55:53;4.63;;;2.60;;
59418;SDS011;45224;50.904;6.038;2022-10-16T04:57:24;5.88;;;2.70;;
59418;SDS011;45224;50.904;6.038;2022-10-16T04:58:55;5.67;;;2.93;;
59418;SDS011;45224;50.904;6.038;2022-10-16T05:00:25;5.07;;;2.77;;
59418;SDS011;45224;50.904;6.038;2022-10-16T05:01:56;3.23;;;2.23;;
59418;SDS011;45224;50.904;6.038;2022-10-16T05:03:26;11.13;;;2.87;;
59418;SDS011;45224;50.904;6.038;2022-10-16T05:04:57;3.73;;;2.10;;
59418;SDS011;45224;50.904;6.038;2022-10-16T05:06:27;5.07;;;2.73;;
59418;SDS011;45224;50.904;6.038;2022-10-16T05:07:58;8.13;;;2.65;;
59418;SDS011;45224;50.904;6.038;2022-10-16T05:09:28;4.83;;;2.70;;
59418;SDS011;45224;50.904;6.038;2022-10-16T05:10:59;7.20;;;2.80;;
59418;SDS011;45224;50.904;6.038;2022-10-16T05:12:30;4.63;;;2.47;;
59418;SDS011;45224;50.904;6.038;2022-10-16T05:14:00;4.87;;;2.70;;
59418;SDS011;45224;50.904;6.038;2022-10-16T05:15:31;6.82;;;2.90;;
59418;SDS011;45224;50.904;6.038;2022-10-16T05:17:02;4.43;;;2.63;;
59418;SDS011;45224;50.904;6.038;2022-10-16T05:18:32;5.80;;;2.73;;
59418;SDS011;45224;50.904;6.038;2022-10-16T05:20:03;4.93;;;3.00;;
59418;SDS011;45224;50.904;6.038;2022-10-16T05:21:34;5.25;;;2.97;;
59418;SDS011;45224;50.904;6.038;2022-10-16T05:23:04;4.73;;;2.60;;
59418;SDS011;45224;50.904;6.038;2022-10-16T05:24:35;3.90;;;2.97;;
59418;SDS011;45224;50.904;6.038;2022-10-16T05:26:06;5.70;;;2.80;;
59418;SDS011;45224;50.904;6.038;2022-10-16T05:27:36;4.70;;;2.50;;
59418;SDS011;45224;50.904;6.038;2022-10-16T05:29:06;8.90;;;2.83;;
59418;SDS011;45224;50.904;6.038;2022-10-16T05:30:37;5.97;;;2.97;;
59418;SDS011;45224;50.904;6.038;2022-10-16T05:32:08;6.70;;;2.80;;
59418;SDS011;45224;50.904;6.038;2022-10-16T05:33:38;5.53;;;2.85;;
59418;SDS011;45224;50.904;6.038;2022-10-16T05:35:08;5.30;;;2.83;;
59418;SDS011;45224;50.904;6.038;2022-10-16T05:36:39;5.93;;;3.10;;
59418;SDS011;45224;50.904;6.038;2022-10-16T05:38:09;5.87;;;2.73;;
59418;SDS011;45224;50.904;6.038;2022-10-16T05:39:40;4.43;;;2.93;;
59418;SDS011;45224;50.904;6.038;2022-10-16T05:41:10;6.50;;;2.93;;
59418;SDS011;45224;50.904;6.038;2022-10-16T05:42:41;3.87;;;2.77;;
59418;SDS011;45224;50.904;6.038;2022-10-16T05:44:11;6.67;;;3.20;;
59418;SDS011;45224;50.904;6.038;2022-10-16T05:45:41;5.47;;;2.93;;
59418;SDS011;45224;50.904;6.038;2022-10-16T05:47:12;7.55;;;2.95;;
59418;SDS011;45224;50.904;6.038;2022-10-16T05:48:44;5.63;;;3.38;;
59418;SDS011;45224;50.904;6.038;2022-10-16T05:50:15;6.40;;;3.78;;
59418;SDS011;45224;50.904;6.038;2022-10-16T05:51:45;4.50;;;3.60;;
59418;SDS011;45224;50.904;6.038;2022-10-16T05:53:16;3.63;;;3.05;;
59418;SDS011;45224;50.904;6.038;2022-10-16T05:54:46;4.10;;;2.83;;
59418;SDS011;45224;50.904;6.038;2022-10-16T05:56:17;4.77;;;3.07;;
59418;SDS011;45224;50.904;6.038;2022-10-16T05:57:47;6.80;;;3.60;;
59418;SDS011;45224;50.904;6.038;2022-10-16T05:59:17;4.77;;;2.80;;
59418;SDS011;45224;50.904;6.038;2022-10-16T06:00:55;4.33;;;2.97;;
59418;SDS011;45224;50.904;6.038;2022-10-16T06:02:27;9.02;;;3.30;;
59418;SDS011;45224;50.904;6.038;2022-10-16T06:03:57;6.87;;;3.03;;
59418;SDS011;45224;50.904;6.038;2022-10-16T06:05:28;7.30;;;3.35;;
59418;SDS011;45224;50.904;6.038;2022-10-16T06:06:58;5.83;;;3.33;;
59418;SDS011;45224;50.904;6.038;2022-10-16T06:08:32;5.07;;;2.97;;
59418;SDS011;45224;50.904;6.038;2022-10-16T06:10:03;6.37;;;3.20;;
59418;SDS011;45224;50.904;6.038;2022-10-16T06:11:34;3.05;;;2.60;;
59418;SDS011;45224;50.904;6.038;2022-10-16T06:13:04;5.43;;;3.07;;
59418;SDS011;45224;50.904;6.038;2022-10-16T06:14:35;6.73;;;2.73;;
59418;SDS011;45224;50.904;6.038;2022-10-16T06:16:05;5.37;;;2.90;;
59418;SDS011;45224;50.904;6.038;2022-10-16T06:17:36;4.13;;;2.85;;
59418;SDS011;45224;50.904;6.038;2022-10-16T06:19:07;5.37;;;2.63;;
59418;SDS011;45224;50.904;6.038;2022-10-16T06:20:38;6.65;;;3.00;;
59418;SDS011;45224;50.904;6.038;2022-10-16T06:22:08;5.57;;;3.33;;
59418;SDS011;45224;50.904;6.038;2022-10-16T06:23:39;3.75;;;2.85;;
59418;SDS011;45224;50.904;6.038;2022-10-16T06:25:09;5.10;;;3.10;;
59418;SDS011;45224;50.904;6.038;2022-10-16T06:26:40;4.30;;;3.30;;
59418;SDS011;45224;50.904;6.038;2022-10-16T06:29:43;4.95;;;2.78;;
59418;SDS011;45224;50.904;6.038;2022-10-16T06:31:15;5.95;;;2.75;;
59418;SDS011;45224;50.904;6.038;2022-10-16T06:32:46;5.03;;;3.10;;
59418;SDS011;45224;50.904;6.038;2022-10-16T06:34:16;7.27;;;3.10;;
59418;SDS011;45224;50.904;6.038;2022-10-16T06:35:47;8.33;;;3.50;;
59418;SDS011;45224;50.904;6.038;2022-10-16T06:37:17;6.77;;;3.40;;
59418;SDS011;45224;50.904;6.038;2022-10-16T06:38:48;3.60;;;3.00;;
59418;SDS011;45224;50.904;6.038;2022-10-16T06:40:18;10.93;;;3.33;;
59418;SDS011;45224;50.904;6.038;2022-10-16T06:41:49;8.00;;;3.00;;
59418;SDS011;45224;50.904;6.038;2022-10-16T06:43:19;6.30;;;3.63;;
59418;SDS011;45224;50.904;6.038;2022-10-16T06:44:50;4.93;;;3.07;;
59418;SDS011;45224;50.904;6.038;2022-10-16T06:46:21;2.90;;;2.60;;
59418;SDS011;45224;50.904;6.038;2022-10-16T06:47:53;5.00;;;2.90;;
59418;SDS011;45224;50.904;6.038;2022-10-16T06:49:23;7.43;;;3.00;;
59418;SDS011;45224;50.904;6.038;2022-10-16T06:52:32;4.85;;;2.78;;
59418;SDS011;45224;50.904;6.038;2022-10-16T06:54:03;5.53;;;2.88;;
59418;SDS011;45224;50.904;6.038;2022-10-16T06:55:34;5.77;;;3.00;;
59418;SDS011;45224;50.904;6.038;2022-10-16T06:57:04;5.70;;;3.03;;
59418;SDS011;45224;50.904;6.038;2022-10-16T06:58:34;11.27;;;2.90;;
59418;SDS011;45224;50.904;6.038;2022-10-16T07:00:05;11.27;;;3.30;;
59418;SDS011;45224;50.904;6.038;2022-10-16T07:01:36;6.00;;;3.00;;
59418;SDS011;45224;50.904;6.038;2022-10-16T07:03:07;6.97;;;2.80;;
59418;SDS011;45224;50.904;6.038;2022-10-16T07:04:37;5.97;;;2.93;;
59418;SDS011;45224;50.904;6.038;2022-10-16T07:06:08;8.77;;;2.60;;
59418;SDS011;45224;50.904;6.038;2022-10-16T07:07:39;4.32;;;2.60;;
59418;SDS011;45224;50.904;6.038;2022-10-16T07:09:10;5.80;;;2.63;;
59418;SDS011;45224;50.904;6.038;2022-10-16T07:10:41;8.63;;;2.83;;
59418;SDS011;45224;50.904;6.038;2022-10-16T07:12:11;8.27;;;3.13;;
59418;SDS011;45224;50.904;6.038;2022-10-16T07:13:42;5.57;;;2.80;;
59418;SDS011;45224;50.904;6.038;2022-10-16T07:15:14;7.25;;;2.78;;
59418;SDS011;45224;50.904;6.038;2022-10-16T07:16:45;10.60;;;3.33;;
59418;SDS011;45224;50.904;6.038;2022-10-16T07:19:46;4.83;;;2.80;;
59418;SDS011;45224;50.904;6.038;2022-10-16T07:21:20;4.67;;;2.43;;
59418;SDS011;45224;50.904;6.038;2022-10-16T07:22:51;5.03;;;2.65;;
59418;SDS011;45224;50.904;6.038;2022-10-16T07:24:22;4.80;;;2.65;;
59418;SDS011;45224;50.904;6.038;2022-10-16T07:25:53;4.90;;;2.50;;
59418;SDS011;45224;50.904;6.038;2022-10-16T07:27:24;7.88;;;2.60;;
59418;SDS011;45224;50.904;6.038;2022-10-16T07:28:55;2.90;;;2.47;;
59418;SDS011;45224;50.904;6.038;2022-10-16T07:30:26;7.85;;;2.63;;
59418;SDS011;45224;50.904;6.038;2022-10-16T07:31:57;5.60;;;2.50;;
59418;SDS011;45224;50.904;6.038;2022-10-16T07:33:27;3.73;;;2.37;;
59418;SDS011;45224;50.904;6.038;2022-10-16T07:34:58;5.20;;;2.70;;
59418;SDS011;45224;50.904;6.038;2022-10-16T07:36:29;4.60;;;2.53;;
59418;SDS011;45224;50.904;6.038;2022-10-16T07:37:59;3.93;;;2.97;;
59418;SDS011;45224;50.904;6.038;2022-10-16T07:39:29;5.53;;;2.90;;
59418;SDS011;45224;50.904;6.038;2022-10-16T07:41:01;6.80;;;2.67;;
59418;SDS011;45224;50.904;6.038;2022-10-16T07:42:33;6.18;;;2.50;;
59418;SDS011;45224;50.904;6.038;2022-10-16T07:44:04;4.67;;;2.80;;
59418;SDS011;45224;50.904;6.038;2022-10-16T07:45:34;6.50;;;2.63;;
59418;SDS011;45224;50.904;6.038;2022-10-16T07:47:05;7.60;;;2.60;;
59418;SDS011;45224;50.904;6.038;2022-10-16T07:48:36;3.85;;;2.42;;
59418;SDS011;45224;50.904;6.038;2022-10-16T07:50:06;9.87;;;2.53;;
59418;SDS011;45224;50.904;6.038;2022-10-16T07:51:37;6.35;;;2.38;;
59418;SDS011;45224;50.904;6.038;2022-10-16T07:53:08;4.50;;;2.33;;
59418;SDS011;45224;50.904;6.038;2022-10-16T07:54:39;6.55;;;2.22;;
59418;SDS011;45224;50.904;6.038;2022-10-16T07:56:09;6.03;;;2.20;;
59418;SDS011;45224;50.904;6.038;2022-10-16T07:57:41;3.75;;;1.98;;
59418;SDS011;45224;50.904;6.038;2022-10-16T07:59:12;3.40;;;2.10;;
59418;SDS011;45224;50.904;6.038;2022-10-16T08:00:42;3.80;;;1.90;;
59418;SDS011;45224;50.904;6.038;2022-10-16T08:02:13;5.13;;;2.27;;
59418;SDS011;45224;50.904;6.038;2022-10-16T08:03:44;4.50;;;1.87;;
59418;SDS011;45224;50.904;6.038;2022-10-16T08:05:15;3.83;;;1.60;;
59418;SDS011;45224;50.904;6.038;2022-10-16T08:06:46;4.93;;;1.80;;
59418;SDS011;45224;50.904;6.038;2022-10-16T08:08:17;5.55;;;1.52;;
59418;SDS011;45224;50.904;6.038;2022-10-16T08:09:49;2.85;;;1.48;;
59418;SDS011;45224;50.904;6.038;2022-10-16T08:11:21;7.47;;;1.80;;
59418;SDS011;45224;50.904;6.038;2022-10-16T08:12:52;6.10;;;1.50;;
59418;SDS011;45224;50.904;6.038;2022-10-16T08:15:53;7.47;;;1.90;;
59418;SDS011;45224;50.904;6.038;2022-10-16T08:17:24;6.45;;;1.50;;
59418;SDS011;45224;50.904;6.038;2022-10-16T08:18:54;4.37;;;1.57;;
59418;SDS011;45224;50.904;6.038;2022-10-16T08:20:25;2.93;;;1.50;;
59418;SDS011;45224;50.904;6.038;2022-10-16T08:21:56;4.22;;;1.23;;
59418;SDS011;45224;50.904;6.038;2022-10-16T08:23:27;7.20;;;1.70;;
59418;SDS011;45224;50.904;6.038;2022-10-16T08:24:58;7.07;;;1.45;;
59418;SDS011;45224;50.904;6.038;2022-10-16T08:26:28;5.07;;;1.33;;
59418;SDS011;45224;50.904;6.038;2022-10-16T08:27:59;3.00;;;1.40;;
59418;SDS011;45224;50.904;6.038;2022-10-16T08:29:30;5.20;;;1.42;;
59418;SDS011;45224;50.904;6.038;2022-10-16T08:31:13;4.03;;;1.50;;
59418;SDS011;45224;50.904;6.038;2022-10-16T08:32:44;4.13;;;1.40;;
59418;SDS011;45224;50.904;6.038;2022-10-16T08:35:52;4.65;;;1.30;;
59418;SDS011;45224;50.904;6.038;2022-10-16T08:37:23;3.75;;;1.20;;
59418;SDS011;45224;50.904;6.038;2022-10-16T08:40:25;7.35;;;1.33;;
59418;SDS011;45224;50.904;6.038;2022-10-16T08:42:04;4.43;;;1.20;;
59418;SDS011;45224;50.904;6.038;2022-10-16T08:47:25;4.45;;;1.33;;
59418;SDS011;45224;50.904;6.038;2022-10-16T08:49:03;4.53;;;1.05;;
59418;SDS011;45224;50.904;6.038;2022-10-16T08:50:38;5.35;;;0.90;;
59418;SDS011;45224;50.904;6.038;2022-10-16T08:52:10;5.45;;;1.05;;
59418;SDS011;45224;50.904;6.038;2022-10-16T08:53:49;5.80;;;1.67;;
59418;SDS011;45224;50.904;6.038;2022-10-16T08:55:27;3.88;;;1.17;;
59418;SDS011;45224;50.904;6.038;2022-10-16T08:57:20;5.10;;;1.40;;
59418;SDS011;45224;50.904;6.038;2022-10-16T08:58:52;6.38;;;1.13;;
59418;SDS011;45224;50.904;6.038;2022-10-16T09:00:24;4.97;;;1.38;;
59418;SDS011;45224;50.904;6.038;2022-10-16T09:01:56;6.90;;;1.35;;
59418;SDS011;45224;50.904;6.038;2022-10-16T09:05:17;2.90;;;0.93;;
59418;SDS011;45224;50.904;6.038;2022-10-16T09:07:16;5.40;;;1.10;;
59418;SDS011;45224;50.904;6.038;2022-10-16T09:12:56;4.45;;;1.20;;
59418;SDS011;45224;50.904;6.038;2022-10-16T09:19:44;4.88;;;1.20;;
59418;SDS011;45224;50.904;6.038;2022-10-16T09:21:25;3.85;;;1.02;;
59418;SDS011;45224;50.904;6.038;2022-10-16T09:24:35;3.28;;;1.02;;
59418;SDS011;45224;50.904;6.038;2022-10-16T09:26:09;3.42;;;1.00;;
59418;SDS011;45224;50.904;6.038;2022-10-16T09:27:44;3.22;;;1.05;;
59418;SDS011;45224;50.904;6.038;2022-10-16T09:29:17;4.72;;;1.10;;
59418;SDS011;45224;50.904;6.038;2022-10-16T09:30:53;2.92;;;1.00;;
59418;SDS011;45224;50.904;6.038;2022-10-16T09:32:24;6.70;;;1.20;;
59418;SDS011;45224;50.904;6.038;2022-10-16T09:33:55;6.40;;;1.20;;
59418;SDS011;45224;50.904;6.038;2022-10-16T09:37:18;2.60;;;0.85;;
59418;SDS011;45224;50.904;6.038;2022-10-16T09:39:01;4.90;;;1.05;;
59418;SDS011;45224;50.904;6.038;2022-10-16T09:40:37;7.50;;;1.17;;
59418;SDS011;45224;50.904;6.038;2022-10-16T09:42:10;8.05;;;0.93;;
59418;SDS011;45224;50.904;6.038;2022-10-16T09:43:59;2.22;;;1.10;;
59418;SDS011;45224;50.904;6.038;2022-10-16T09:45:32;4.13;;;1.00;;
59418;SDS011;45224;50.904;6.038;2022-10-16T09:47:03;2.60;;;1.02;;
59418;SDS011;45224;50.904;6.038;2022-10-16T09:49:18;5.05;;;1.05;;
59418;SDS011;45224;50.904;6.038;2022-10-16T09:50:30;4.75;;;0.90;;
59418;SDS011;45224;50.904;6.038;2022-10-16T09:52:04;5.95;;;1.10;;
59418;SDS011;45224;50.904;6.038;2022-10-16T09:53:40;8.20;;;1.10;;
59418;SDS011;45224;50.904;6.038;2022-10-16T09:55:15;4.25;;;1.05;;
59418;SDS011;45224;50.904;6.038;2022-10-16T09:56:47;5.70;;;1.05;;